Oriental Freesia — ZGCD7 — position and weather

sailwx.info

Track history (hours):
 
Tides and Currents Weather Stations Pressure Air Temp Water Temp Dewpoint Dewpoint Depression Visibility Wind Speed Wind Dir Waves Ship Positions

Oriental Freesia

Last reported at 2014-Oct-24 10:33 UTC. Time now 2014-Oct-24 11:29 UTC.
Position N 51°24' E 002°34'.

Length 134 m; draft 5.8 m.

Type: Ship (hazmat cat A). MMSI: 319349000.

Date/timePositionNaut miles runAvg speedWind from/ knotsBaromVisibWave heightAir tempDewpointWater temp
2014-Oct-24 10:33N 51°24' E 002°34'2 2.5
2014-Oct-24 09:33N 51°22' E 002°32'9 9.5
2014-Oct-24 08:33N 51°18' E 002°18'1010.4
2014-Oct-24 07:34N 51°13' E 002°04'10 9.5
2014-Oct-24 06:33N 51°08' E 001°50'9 9.5
2014-Oct-24 05:33N 51°02' E 001°39'1010.1
2014-Oct-24 04:33N 50°55' E 001°28'  
2014-Oct-20 17:13N 38°16' W 009°49'710.7
2014-Oct-20 16:33N 38°09' W 009°47'1111.1
2014-Oct-20 15:33N 37°58' W 009°44'1111.4
2014-Oct-20 14:33N 37°47' W 009°41'1111.3
2014-Oct-20 13:33N 37°36' W 009°37'1211.5
2014-Oct-20 12:33N 37°25' W 009°34'5510.9
2014-Oct-20 07:28N 36°37' W 008°58'1112.0
2014-Oct-20 06:33N 36°34' W 008°44'1412.1
2014-Oct-20 05:25N 36°31' W 008°28'14212.6
2014-Oct-19 18:07N 35°58' W 005°37'611.2
2014-Oct-19 17:32N 35°59' W 005°29'1110.8
2014-Oct-19 16:33N 36°02' W 005°16'20912.1
2014-Oct-18 23:15N 36°39' W 001°01'912.6
2014-Oct-18 22:32N 36°41' W 000°50'1312.4
2014-Oct-18 21:31N 36°43' W 000°34'1512.9
2014-Oct-18 20:20N 36°47' W 000°16'1012.8
2014-Oct-18 19:33N 36°49' W 000°03'1312.9
2014-Oct-18 18:33N 36°52' E 000°12'1212.6
2014-Oct-18 17:33N 36°55' E 000°27'1412.9
2014-Oct-18 16:31N 36°58' E 000°44'10012.2
2014-Oct-18 08:20N 37°20' E 002°46'912.1
2014-Oct-18 07:33N 37°22' E 002°57'1212.2
2014-Oct-18 06:33N 37°25' E 003°12'2512.2
2014-Oct-18 04:32N 37°30' E 003°42'1212.3
2014-Oct-18 03:33N 37°33' E 003°57'5012.5
2014-Oct-17 23:33N 37°44' E 004°59'10312.3
2014-Oct-17 15:11N 37°44' E 007°09'2011.7
2014-Oct-17 13:31N 37°44' E 007°33'3012.1
2014-Oct-17 11:04N 37°44' E 008°11'612.3
2014-Oct-17 10:33N 37°44' E 008°19'1211.7
2014-Oct-17 09:33N 37°44' E 008°34'1311.5
2014-Oct-17 08:24N 37°44' E 008°51'1011.2
2014-Oct-17 07:31N 37°43' E 009°03'1511.0
2014-Oct-17 06:06N 37°41' E 009°22'55101426.9
2014-Oct-17 02:14N 22°21' E 113°57'5335456.6
2014-Oct-16 14:33N 36°49' E 013°04'1312.4
2014-Oct-16 13:30N 36°45' E 013°19'1112.2
2014-Oct-16 12:33N 36°42' E 013°33'1212.0
2014-Oct-16 11:33N 36°39' E 013°47'1211.9
2014-Oct-16 10:33N 36°36' E 014°02'1212.0
2014-Oct-16 09:33N 36°32' E 014°16'1211.9
2014-Oct-16 08:33N 36°29' E 014°30'1211.5
2014-Oct-16 07:33N 36°27' E 014°44'43511.2
2014-Oct-14 16:33N 36°35' E 023°45'1313.0
2014-Oct-14 15:33N 36°45' E 023°56'1312.5
2014-Oct-14 14:33N 36°56' E 024°03'1412.4
2014-Oct-14 13:25N 37°10' E 024°09'1112.3
2014-Oct-14 12:33N 37°20' E 024°13'1312.7
2014-Oct-14 11:31N 37°31' E 024°21'  
Track history (hours):
 
Tides and Currents Weather Stations Pressure Air Temp Water Temp Dewpoint Dewpoint Depression Visibility Wind Speed Wind Dir Waves Ship Positions

Oriental Freesia

Last reported at 2014-Oct-24 10:33 UTC. Time now 2014-Oct-24 11:29 UTC.
Position N 51°24' E 002°34'.

Length 134 m; draft 5.8 m.

Type: Ship (hazmat cat A). MMSI: 319349000.

Date/timePositionNaut miles runAvg speedWind from/ knotsBaromVisibWave heightAir tempDewpointWater temp
2014-Oct-24 10:33N 51°24' E 002°34'2 2.5
2014-Oct-24 09:33N 51°22' E 002°32'9 9.5
2014-Oct-24 08:33N 51°18' E 002°18'1010.4
2014-Oct-24 07:34N 51°13' E 002°04'10 9.5
2014-Oct-24 06:33N 51°08' E 001°50'9 9.5
2014-Oct-24 05:33N 51°02' E 001°39'1010.1
2014-Oct-24 04:33N 50°55' E 001°28'  
2014-Oct-20 17:13N 38°16' W 009°49'710.7
2014-Oct-20 16:33N 38°09' W 009°47'1111.1
2014-Oct-20 15:33N 37°58' W 009°44'1111.4
2014-Oct-20 14:33N 37°47' W 009°41'1111.3
2014-Oct-20 13:33N 37°36' W 009°37'1211.5
2014-Oct-20 12:33N 37°25' W 009°34'5510.9
2014-Oct-20 07:28N 36°37' W 008°58'1112.0
2014-Oct-20 06:33N 36°34' W 008°44'1412.1
2014-Oct-20 05:25N 36°31' W 008°28'14212.6
2014-Oct-19 18:07N 35°58' W 005°37'611.2
2014-Oct-19 17:32N 35°59' W 005°29'1110.8
2014-Oct-19 16:33N 36°02' W 005°16'20912.1
2014-Oct-18 23:15N 36°39' W 001°01'912.6
2014-Oct-18 22:32N 36°41' W 000°50'1312.4
2014-Oct-18 21:31N 36°43' W 000°34'1512.9
2014-Oct-18 20:20N 36°47' W 000°16'1012.8
2014-Oct-18 19:33N 36°49' W 000°03'1312.9
2014-Oct-18 18:33N 36°52' E 000°12'1212.6
2014-Oct-18 17:33N 36°55' E 000°27'1412.9
2014-Oct-18 16:31N 36°58' E 000°44'10012.2
2014-Oct-18 08:20N 37°20' E 002°46'912.1
2014-Oct-18 07:33N 37°22' E 002°57'1212.2
2014-Oct-18 06:33N 37°25' E 003°12'2512.2
2014-Oct-18 04:32N 37°30' E 003°42'1212.3
2014-Oct-18 03:33N 37°33' E 003°57'5012.5
2014-Oct-17 23:33N 37°44' E 004°59'10312.3
2014-Oct-17 15:11N 37°44' E 007°09'2011.7
2014-Oct-17 13:31N 37°44' E 007°33'3012.1
2014-Oct-17 11:04N 37°44' E 008°11'612.3
2014-Oct-17 10:33N 37°44' E 008°19'1211.7
2014-Oct-17 09:33N 37°44' E 008°34'1311.5
2014-Oct-17 08:24N 37°44' E 008°51'1011.2
2014-Oct-17 07:31N 37°43' E 009°03'1511.0
2014-Oct-17 06:06N 37°41' E 009°22'55101426.9
2014-Oct-17 02:14N 22°21' E 113°57'5335456.6
2014-Oct-16 14:33N 36°49' E 013°04'1312.4
2014-Oct-16 13:30N 36°45' E 013°19'1112.2
2014-Oct-16 12:33N 36°42' E 013°33'1212.0
2014-Oct-16 11:33N 36°39' E 013°47'1211.9
2014-Oct-16 10:33N 36°36' E 014°02'1212.0
2014-Oct-16 09:33N 36°32' E 014°16'1211.9
2014-Oct-16 08:33N 36°29' E 014°30'1211.5
2014-Oct-16 07:33N 36°27' E 014°44'43511.2
2014-Oct-14 16:33N 36°35' E 023°45'1313.0
2014-Oct-14 15:33N 36°45' E 023°56'1312.5
2014-Oct-14 14:33N 36°56' E 024°03'1412.4
2014-Oct-14 13:25N 37°10' E 024°09'1112.3
2014-Oct-14 12:33N 37°20' E 024°13'1312.7
2014-Oct-14 11:31N 37°31' E 024°21'  

Dump ship's entire track history